sensor_id;sensor_type;location;lat;lon;timestamp;P1;durP1;ratioP1;P2;durP2;ratioP2
74124;SDS011;62475;52.192;5.396;2023-05-16T00:02:14;10.38;;;1.45;;
74124;SDS011;62475;52.192;5.396;2023-05-16T00:05:38;3.75;;;1.20;;
74124;SDS011;62475;52.192;5.396;2023-05-16T00:09:02;8.10;;;1.30;;
74124;SDS011;62475;52.192;5.396;2023-05-16T00:12:26;13.07;;;1.40;;
74124;SDS011;62475;52.192;5.396;2023-05-16T00:15:51;10.90;;;1.30;;
74124;SDS011;62475;52.192;5.396;2023-05-16T00:19:15;8.65;;;1.63;;
74124;SDS011;62475;52.192;5.396;2023-05-16T00:22:41;5.10;;;1.60;;
74124;SDS011;62475;52.192;5.396;2023-05-16T00:26:06;10.70;;;1.63;;
74124;SDS011;62475;52.192;5.396;2023-05-16T00:29:30;6.22;;;1.92;;
74124;SDS011;62475;52.192;5.396;2023-05-16T00:32:54;10.30;;;1.38;;
74124;SDS011;62475;52.192;5.396;2023-05-16T00:36:18;6.80;;;1.50;;
74124;SDS011;62475;52.192;5.396;2023-05-16T00:39:42;4.93;;;1.67;;
74124;SDS011;62475;52.192;5.396;2023-05-16T00:43:06;10.27;;;2.45;;
74124;SDS011;62475;52.192;5.396;2023-05-16T00:46:30;9.40;;;1.35;;
74124;SDS011;62475;52.192;5.396;2023-05-16T00:49:55;6.45;;;1.33;;
74124;SDS011;62475;52.192;5.396;2023-05-16T00:53:19;11.20;;;1.75;;
74124;SDS011;62475;52.192;5.396;2023-05-16T00:56:45;7.05;;;1.77;;
74124;SDS011;62475;52.192;5.396;2023-05-16T01:00:09;8.07;;;1.60;;
74124;SDS011;62475;52.192;5.396;2023-05-16T01:03:34;8.15;;;1.40;;
74124;SDS011;62475;52.192;5.396;2023-05-16T01:06:58;15.40;;;2.22;;
74124;SDS011;62475;52.192;5.396;2023-05-16T01:10:23;7.63;;;1.27;;
74124;SDS011;62475;52.192;5.396;2023-05-16T01:21:03;9.55;;;1.90;;
74124;SDS011;62475;52.192;5.396;2023-05-16T01:24:55;10.43;;;1.45;;
74124;SDS011;62475;52.192;5.396;2023-05-16T01:28:43;6.80;;;2.03;;
74124;SDS011;62475;52.192;5.396;2023-05-16T01:32:07;6.28;;;1.23;;
74124;SDS011;62475;52.192;5.396;2023-05-16T01:35:31;8.23;;;1.40;;
74124;SDS011;62475;52.192;5.396;2023-05-16T01:42:34;6.38;;;1.80;;
74124;SDS011;62475;52.192;5.396;2023-05-16T01:46:10;4.80;;;1.92;;
74124;SDS011;62475;52.192;5.396;2023-05-16T01:53:32;11.13;;;1.27;;
74124;SDS011;62475;52.192;5.396;2023-05-16T01:56:55;12.07;;;1.67;;
74124;SDS011;62475;52.192;5.396;2023-05-16T02:00:19;9.52;;;1.52;;
74124;SDS011;62475;52.192;5.396;2023-05-16T02:03:43;8.75;;;1.60;;
74124;SDS011;62475;52.192;5.396;2023-05-16T02:07:07;8.18;;;1.67;;
74124;SDS011;62475;52.192;5.396;2023-05-16T02:10:32;10.32;;;1.58;;
74124;SDS011;62475;52.192;5.396;2023-05-16T02:13:56;13.25;;;1.90;;
74124;SDS011;62475;52.192;5.396;2023-05-16T02:17:20;5.95;;;1.38;;
74124;SDS011;62475;52.192;5.396;2023-05-16T02:20:43;9.25;;;1.73;;
74124;SDS011;62475;52.192;5.396;2023-05-16T02:24:07;8.40;;;1.52;;
74124;SDS011;62475;52.192;5.396;2023-05-16T02:30:59;6.68;;;1.50;;
74124;SDS011;62475;52.192;5.396;2023-05-16T02:34:23;8.70;;;1.83;;
74124;SDS011;62475;52.192;5.396;2023-05-16T02:37:47;4.60;;;1.52;;
74124;SDS011;62475;52.192;5.396;2023-05-16T02:41:11;8.60;;;1.73;;
74124;SDS011;62475;52.192;5.396;2023-05-16T02:44:34;7.03;;;1.42;;
74124;SDS011;62475;52.192;5.396;2023-05-16T02:47:58;5.30;;;1.92;;
74124;SDS011;62475;52.192;5.396;2023-05-16T02:51:23;10.95;;;1.90;;
74124;SDS011;62475;52.192;5.396;2023-05-16T02:54:48;9.77;;;1.90;;
74124;SDS011;62475;52.192;5.396;2023-05-16T02:58:12;7.63;;;1.80;;
74124;SDS011;62475;52.192;5.396;2023-05-16T03:01:36;8.57;;;1.77;;
74124;SDS011;62475;52.192;5.396;2023-05-16T03:04:59;9.27;;;1.30;;
74124;SDS011;62475;52.192;5.396;2023-05-16T03:08:23;10.98;;;2.05;;
74124;SDS011;62475;52.192;5.396;2023-05-16T03:11:47;5.75;;;1.50;;
74124;SDS011;62475;52.192;5.396;2023-05-16T03:15:11;8.95;;;1.75;;
74124;SDS011;62475;52.192;5.396;2023-05-16T03:18:35;9.18;;;1.73;;
74124;SDS011;62475;52.192;5.396;2023-05-16T03:21:58;8.55;;;1.60;;
74124;SDS011;62475;52.192;5.396;2023-05-16T03:25:22;9.75;;;1.92;;
74124;SDS011;62475;52.192;5.396;2023-05-16T03:28:46;8.40;;;1.58;;
74124;SDS011;62475;52.192;5.396;2023-05-16T03:32:10;8.07;;;1.90;;
74124;SDS011;62475;52.192;5.396;2023-05-16T03:35:34;6.53;;;1.33;;
74124;SDS011;62475;52.192;5.396;2023-05-16T03:38:59;12.65;;;1.75;;
74124;SDS011;62475;52.192;5.396;2023-05-16T03:42:25;7.57;;;1.23;;
74124;SDS011;62475;52.192;5.396;2023-05-16T03:45:49;6.57;;;1.75;;
74124;SDS011;62475;52.192;5.396;2023-05-16T03:49:12;11.88;;;1.80;;
74124;SDS011;62475;52.192;5.396;2023-05-16T03:52:36;10.60;;;1.40;;
74124;SDS011;62475;52.192;5.396;2023-05-16T03:56:01;6.75;;;1.02;;
74124;SDS011;62475;52.192;5.396;2023-05-16T03:59:25;4.88;;;1.10;;
74124;SDS011;62475;52.192;5.396;2023-05-16T04:02:49;11.13;;;1.70;;
74124;SDS011;62475;52.192;5.396;2023-05-16T04:06:14;5.35;;;1.30;;
74124;SDS011;62475;52.192;5.396;2023-05-16T04:09:39;7.07;;;1.30;;
74124;SDS011;62475;52.192;5.396;2023-05-16T04:13:03;6.90;;;1.13;;
74124;SDS011;62475;52.192;5.396;2023-05-16T04:16:27;11.38;;;1.73;;
74124;SDS011;62475;52.192;5.396;2023-05-16T04:19:50;7.07;;;1.25;;
74124;SDS011;62475;52.192;5.396;2023-05-16T04:23:14;6.45;;;1.20;;
74124;SDS011;62475;52.192;5.396;2023-05-16T04:26:38;5.55;;;1.42;;
74124;SDS011;62475;52.192;5.396;2023-05-16T04:30:02;11.65;;;1.75;;
74124;SDS011;62475;52.192;5.396;2023-05-16T04:33:26;4.55;;;1.27;;
74124;SDS011;62475;52.192;5.396;2023-05-16T04:36:52;7.57;;;1.60;;
74124;SDS011;62475;52.192;5.396;2023-05-16T04:40:16;8.98;;;1.30;;
74124;SDS011;62475;52.192;5.396;2023-05-16T04:43:40;5.03;;;1.15;;
74124;SDS011;62475;52.192;5.396;2023-05-16T04:47:04;6.53;;;1.35;;
74124;SDS011;62475;52.192;5.396;2023-05-16T04:50:28;7.50;;;1.40;;
74124;SDS011;62475;52.192;5.396;2023-05-16T04:53:52;3.70;;;1.20;;
74124;SDS011;62475;52.192;5.396;2023-05-16T04:57:16;8.23;;;1.30;;
74124;SDS011;62475;52.192;5.396;2023-05-16T05:00:40;5.65;;;1.13;;
74124;SDS011;62475;52.192;5.396;2023-05-16T05:04:04;6.00;;;1.13;;
74124;SDS011;62475;52.192;5.396;2023-05-16T05:10:54;5.85;;;1.30;;
74124;SDS011;62475;52.192;5.396;2023-05-16T05:14:18;6.43;;;1.58;;
74124;SDS011;62475;52.192;5.396;2023-05-16T05:17:43;4.70;;;1.08;;
74124;SDS011;62475;52.192;5.396;2023-05-16T05:21:08;5.45;;;1.10;;
74124;SDS011;62475;52.192;5.396;2023-05-16T05:24:32;9.95;;;1.48;;
74124;SDS011;62475;52.192;5.396;2023-05-16T05:27:57;3.70;;;1.25;;
74124;SDS011;62475;52.192;5.396;2023-05-16T05:31:21;5.90;;;1.38;;
74124;SDS011;62475;52.192;5.396;2023-05-16T05:34:45;4.32;;;1.17;;
74124;SDS011;62475;52.192;5.396;2023-05-16T05:38:09;3.30;;;1.00;;
74124;SDS011;62475;52.192;5.396;2023-05-16T05:41:33;12.70;;;1.58;;
74124;SDS011;62475;52.192;5.396;2023-05-16T05:44:57;3.80;;;1.25;;
74124;SDS011;62475;52.192;5.396;2023-05-16T05:48:21;9.02;;;1.25;;
74124;SDS011;62475;52.192;5.396;2023-05-16T05:51:46;8.52;;;2.15;;
74124;SDS011;62475;52.192;5.396;2023-05-16T05:55:10;4.43;;;0.70;;
74124;SDS011;62475;52.192;5.396;2023-05-16T05:58:34;7.78;;;1.23;;
74124;SDS011;62475;52.192;5.396;2023-05-16T06:01:58;5.07;;;0.98;;
74124;SDS011;62475;52.192;5.396;2023-05-16T06:05:22;3.67;;;0.88;;
74124;SDS011;62475;52.192;5.396;2023-05-16T06:08:46;4.00;;;1.02;;
74124;SDS011;62475;52.192;5.396;2023-05-16T06:12:10;6.28;;;1.05;;
74124;SDS011;62475;52.192;5.396;2023-05-16T06:15:33;6.85;;;1.10;;
74124;SDS011;62475;52.192;5.396;2023-05-16T06:18:57;9.57;;;1.25;;
74124;SDS011;62475;52.192;5.396;2023-05-16T06:22:21;3.65;;;1.08;;
74124;SDS011;62475;52.192;5.396;2023-05-16T06:29:14;2.38;;;0.95;;
74124;SDS011;62475;52.192;5.396;2023-05-16T06:32:38;5.68;;;1.50;;
74124;SDS011;62475;52.192;5.396;2023-05-16T06:36:02;6.68;;;1.10;;
74124;SDS011;62475;52.192;5.396;2023-05-16T06:39:27;5.75;;;1.02;;
74124;SDS011;62475;52.192;5.396;2023-05-16T06:42:51;4.78;;;0.90;;
74124;SDS011;62475;52.192;5.396;2023-05-16T06:49:39;6.35;;;1.05;;
74124;SDS011;62475;52.192;5.396;2023-05-16T06:53:03;7.55;;;0.88;;
74124;SDS011;62475;52.192;5.396;2023-05-16T06:56:27;4.15;;;0.98;;
74124;SDS011;62475;52.192;5.396;2023-05-16T06:59:53;11.45;;;1.80;;
74124;SDS011;62475;52.192;5.396;2023-05-16T07:03:16;7.85;;;1.15;;
74124;SDS011;62475;52.192;5.396;2023-05-16T07:06:42;4.07;;;0.65;;
74124;SDS011;62475;52.192;5.396;2023-05-16T07:10:06;3.70;;;0.75;;
74124;SDS011;62475;52.192;5.396;2023-05-16T07:13:30;4.55;;;0.60;;
74124;SDS011;62475;52.192;5.396;2023-05-16T07:16:54;5.03;;;0.90;;
74124;SDS011;62475;52.192;5.396;2023-05-16T07:20:17;4.25;;;1.05;;
74124;SDS011;62475;52.192;5.396;2023-05-16T07:23:41;2.85;;;0.75;;
74124;SDS011;62475;52.192;5.396;2023-05-16T07:27:05;2.70;;;0.50;;
74124;SDS011;62475;52.192;5.396;2023-05-16T07:30:29;4.05;;;0.65;;
74124;SDS011;62475;52.192;5.396;2023-05-16T07:33:53;6.80;;;0.77;;
74124;SDS011;62475;52.192;5.396;2023-05-16T07:37:17;3.13;;;0.80;;
74124;SDS011;62475;52.192;5.396;2023-05-16T07:40:41;3.13;;;0.50;;
74124;SDS011;62475;52.192;5.396;2023-05-16T07:44:04;7.47;;;0.90;;
74124;SDS011;62475;52.192;5.396;2023-05-16T07:47:29;3.45;;;0.73;;
74124;SDS011;62475;52.192;5.396;2023-05-16T07:50:53;5.30;;;1.10;;
74124;SDS011;62475;52.192;5.396;2023-05-16T07:54:17;4.93;;;0.85;;
74124;SDS011;62475;52.192;5.396;2023-05-16T07:57:41;5.10;;;1.00;;
74124;SDS011;62475;52.192;5.396;2023-05-16T08:01:05;7.82;;;0.95;;
74124;SDS011;62475;52.192;5.396;2023-05-16T08:04:31;4.47;;;0.90;;
74124;SDS011;62475;52.192;5.396;2023-05-16T08:07:55;1.85;;;1.02;;
74124;SDS011;62475;52.192;5.396;2023-05-16T08:11:18;3.88;;;1.23;;
74124;SDS011;62475;52.192;5.396;2023-05-16T08:14:42;4.05;;;0.90;;
74124;SDS011;62475;52.192;5.396;2023-05-16T08:18:11;7.55;;;1.20;;
74124;SDS011;62475;52.192;5.396;2023-05-16T08:21:35;5.97;;;1.30;;
74124;SDS011;62475;52.192;5.396;2023-05-16T08:24:59;3.20;;;0.85;;
74124;SDS011;62475;52.192;5.396;2023-05-16T08:28:23;4.70;;;1.00;;
74124;SDS011;62475;52.192;5.396;2023-05-16T08:31:46;3.20;;;0.60;;
74124;SDS011;62475;52.192;5.396;2023-05-16T08:35:10;3.95;;;0.70;;
74124;SDS011;62475;52.192;5.396;2023-05-16T08:38:34;7.78;;;1.42;;
74124;SDS011;62475;52.192;5.396;2023-05-16T08:41:58;5.90;;;0.80;;
74124;SDS011;62475;52.192;5.396;2023-05-16T08:45:23;7.18;;;1.13;;
74124;SDS011;62475;52.192;5.396;2023-05-16T08:48:51;4.05;;;0.63;;
74124;SDS011;62475;52.192;5.396;2023-05-16T08:52:17;5.68;;;0.80;;
74124;SDS011;62475;52.192;5.396;2023-05-16T08:55:45;3.22;;;0.65;;
74124;SDS011;62475;52.192;5.396;2023-05-16T08:59:12;5.07;;;0.52;;
74124;SDS011;62475;52.192;5.396;2023-05-16T09:02:40;8.23;;;1.27;;
74124;SDS011;62475;52.192;5.396;2023-05-16T09:06:08;3.97;;;0.70;;
74124;SDS011;62475;52.192;5.396;2023-05-16T09:09:32;5.95;;;0.65;;
74124;SDS011;62475;52.192;5.396;2023-05-16T09:12:56;6.63;;;0.95;;
74124;SDS011;62475;52.192;5.396;2023-05-16T09:16:23;7.72;;;0.88;;
74124;SDS011;62475;52.192;5.396;2023-05-16T09:19:46;6.20;;;0.93;;
74124;SDS011;62475;52.192;5.396;2023-05-16T09:23:13;2.08;;;0.57;;
74124;SDS011;62475;52.192;5.396;2023-05-16T09:26:37;2.15;;;0.50;;
74124;SDS011;62475;52.192;5.396;2023-05-16T09:33:26;3.33;;;1.10;;
74124;SDS011;62475;52.192;5.396;2023-05-16T09:36:53;5.55;;;0.52;;
74124;SDS011;62475;52.192;5.396;2023-05-16T09:40:26;4.75;;;0.73;;
74124;SDS011;62475;52.192;5.396;2023-05-16T09:43:50;1.23;;;0.57;;
74124;SDS011;62475;52.192;5.396;2023-05-16T09:47:15;1.63;;;0.50;;
74124;SDS011;62475;52.192;5.396;2023-05-16T09:50:40;3.10;;;0.70;;
74124;SDS011;62475;52.192;5.396;2023-05-16T09:54:10;5.20;;;0.68;;
74124;SDS011;62475;52.192;5.396;2023-05-16T09:57:37;4.32;;;0.77;;
74124;SDS011;62475;52.192;5.396;2023-05-16T10:01:02;3.78;;;1.05;;
74124;SDS011;62475;52.192;5.396;2023-05-16T10:04:27;1.88;;;0.88;;
74124;SDS011;62475;52.192;5.396;2023-05-16T10:07:52;4.15;;;0.93;;
74124;SDS011;62475;52.192;5.396;2023-05-16T10:11:17;2.63;;;0.60;;
74124;SDS011;62475;52.192;5.396;2023-05-16T10:18:06;4.57;;;0.60;;
74124;SDS011;62475;52.192;5.396;2023-05-16T10:21:30;4.53;;;0.55;;
74124;SDS011;62475;52.192;5.396;2023-05-16T10:25:03;3.00;;;0.80;;
74124;SDS011;62475;52.192;5.396;2023-05-16T10:28:30;4.03;;;0.65;;
74124;SDS011;62475;52.192;5.396;2023-05-16T10:31:54;2.13;;;0.50;;
74124;SDS011;62475;52.192;5.396;2023-05-16T10:35:20;5.85;;;0.88;;
74124;SDS011;62475;52.192;5.396;2023-05-16T10:38:44;4.07;;;1.02;;
74124;SDS011;62475;52.192;5.396;2023-05-16T10:42:09;2.38;;;0.60;;
74124;SDS011;62475;52.192;5.396;2023-05-16T10:48:57;2.65;;;0.88;;
74124;SDS011;62475;52.192;5.396;2023-05-16T10:52:21;2.08;;;0.40;;
74124;SDS011;62475;52.192;5.396;2023-05-16T10:59:27;4.53;;;1.35;;
74124;SDS011;62475;52.192;5.396;2023-05-16T11:02:54;4.07;;;0.82;;
74124;SDS011;62475;52.192;5.396;2023-05-16T11:10:15;2.70;;;0.57;;
74124;SDS011;62475;52.192;5.396;2023-05-16T11:13:58;2.03;;;0.40;;
74124;SDS011;62475;52.192;5.396;2023-05-16T11:17:25;1.83;;;0.40;;
74124;SDS011;62475;52.192;5.396;2023-05-16T11:20:50;2.67;;;0.95;;
74124;SDS011;62475;52.192;5.396;2023-05-16T11:24:30;2.85;;;0.57;;
74124;SDS011;62475;52.192;5.396;2023-05-16T11:27:59;3.45;;;0.40;;
74124;SDS011;62475;52.192;5.396;2023-05-16T11:31:23;2.03;;;0.50;;
74124;SDS011;62475;52.192;5.396;2023-05-16T11:34:48;1.85;;;0.43;;
74124;SDS011;62475;52.192;5.396;2023-05-16T11:38:32;4.28;;;0.50;;
74124;SDS011;62475;52.192;5.396;2023-05-16T11:41:56;3.58;;;0.50;;
74124;SDS011;62475;52.192;5.396;2023-05-16T11:45:23;2.85;;;0.57;;
74124;SDS011;62475;52.192;5.396;2023-05-16T11:48:47;5.80;;;1.00;;
74124;SDS011;62475;52.192;5.396;2023-05-16T11:52:11;2.08;;;0.80;;
74124;SDS011;62475;52.192;5.396;2023-05-16T11:55:35;4.20;;;0.70;;
74124;SDS011;62475;52.192;5.396;2023-05-16T11:59:00;2.13;;;0.40;;
74124;SDS011;62475;52.192;5.396;2023-05-16T12:02:28;3.78;;;0.80;;
74124;SDS011;62475;52.192;5.396;2023-05-16T12:05:53;3.08;;;0.55;;
74124;SDS011;62475;52.192;5.396;2023-05-16T12:09:24;1.40;;;0.43;;
74124;SDS011;62475;52.192;5.396;2023-05-16T12:12:49;2.15;;;0.52;;
74124;SDS011;62475;52.192;5.396;2023-05-16T12:16:13;7.63;;;0.80;;
74124;SDS011;62475;52.192;5.396;2023-05-16T12:19:37;6.13;;;0.52;;
74124;SDS011;62475;52.192;5.396;2023-05-16T12:26:26;3.65;;;0.57;;
74124;SDS011;62475;52.192;5.396;2023-05-16T12:29:51;8.75;;;1.23;;
74124;SDS011;62475;52.192;5.396;2023-05-16T12:33:15;14.27;;;2.75;;
74124;SDS011;62475;52.192;5.396;2023-05-16T12:36:40;4.88;;;0.75;;
74124;SDS011;62475;52.192;5.396;2023-05-16T12:40:08;7.00;;;1.70;;
74124;SDS011;62475;52.192;5.396;2023-05-16T12:43:35;3.90;;;0.93;;
74124;SDS011;62475;52.192;5.396;2023-05-16T12:46:59;7.28;;;1.10;;
74124;SDS011;62475;52.192;5.396;2023-05-16T12:50:28;4.72;;;1.00;;
74124;SDS011;62475;52.192;5.396;2023-05-16T12:53:53;7.18;;;1.27;;
74124;SDS011;62475;52.192;5.396;2023-05-16T12:57:17;2.47;;;0.60;;
74124;SDS011;62475;52.192;5.396;2023-05-16T13:00:41;1.92;;;0.70;;
74124;SDS011;62475;52.192;5.396;2023-05-16T13:04:06;2.13;;;0.60;;
74124;SDS011;62475;52.192;5.396;2023-05-16T13:07:31;4.03;;;0.70;;
74124;SDS011;62475;52.192;5.396;2023-05-16T13:10:55;3.30;;;1.00;;
74124;SDS011;62475;52.192;5.396;2023-05-16T13:14:20;3.20;;;0.70;;
74124;SDS011;62475;52.192;5.396;2023-05-16T13:17:44;2.70;;;0.77;;
74124;SDS011;62475;52.192;5.396;2023-05-16T13:21:09;2.42;;;1.00;;
74124;SDS011;62475;52.192;5.396;2023-05-16T13:24:36;1.40;;;0.65;;
74124;SDS011;62475;52.192;5.396;2023-05-16T13:28:00;3.90;;;0.90;;
74124;SDS011;62475;52.192;5.396;2023-05-16T13:31:26;5.95;;;0.60;;
74124;SDS011;62475;52.192;5.396;2023-05-16T13:34:50;6.88;;;0.82;;
74124;SDS011;62475;52.192;5.396;2023-05-16T13:38:15;2.95;;;0.65;;
74124;SDS011;62475;52.192;5.396;2023-05-16T13:41:39;5.03;;;0.85;;
74124;SDS011;62475;52.192;5.396;2023-05-16T13:45:03;1.25;;;0.63;;
74124;SDS011;62475;52.192;5.396;2023-05-16T13:48:27;1.80;;;0.57;;
74124;SDS011;62475;52.192;5.396;2023-05-16T13:51:51;4.07;;;0.60;;
74124;SDS011;62475;52.192;5.396;2023-05-16T13:55:16;4.25;;;0.90;;
74124;SDS011;62475;52.192;5.396;2023-05-16T13:58:41;9.40;;;1.00;;
74124;SDS011;62475;52.192;5.396;2023-05-16T14:02:04;2.13;;;0.70;;
74124;SDS011;62475;52.192;5.396;2023-05-16T14:05:28;3.22;;;0.70;;
74124;SDS011;62475;52.192;5.396;2023-05-16T14:08:53;4.28;;;0.68;;
74124;SDS011;62475;52.192;5.396;2023-05-16T14:12:20;3.53;;;0.60;;
74124;SDS011;62475;52.192;5.396;2023-05-16T14:15:44;2.80;;;0.50;;
74124;SDS011;62475;52.192;5.396;2023-05-16T14:19:09;4.28;;;1.30;;
74124;SDS011;62475;52.192;5.396;2023-05-16T14:22:34;2.72;;;0.45;;
74124;SDS011;62475;52.192;5.396;2023-05-16T14:25:58;5.63;;;0.82;;
74124;SDS011;62475;52.192;5.396;2023-05-16T14:29:21;4.45;;;0.65;;
74124;SDS011;62475;52.192;5.396;2023-05-16T14:32:46;4.53;;;1.10;;
74124;SDS011;62475;52.192;5.396;2023-05-16T14:36:09;5.95;;;0.80;;
74124;SDS011;62475;52.192;5.396;2023-05-16T14:39:35;4.38;;;0.82;;
74124;SDS011;62475;52.192;5.396;2023-05-16T14:42:58;4.03;;;0.65;;
74124;SDS011;62475;52.192;5.396;2023-05-16T14:46:23;2.88;;;0.80;;
74124;SDS011;62475;52.192;5.396;2023-05-16T14:49:50;4.10;;;0.57;;
74124;SDS011;62475;52.192;5.396;2023-05-16T14:53:15;5.50;;;0.70;;
74124;SDS011;62475;52.192;5.396;2023-05-16T14:56:40;1.95;;;0.77;;
74124;SDS011;62475;52.192;5.396;2023-05-16T15:00:05;1.58;;;0.45;;
74124;SDS011;62475;52.192;5.396;2023-05-16T15:03:29;8.68;;;0.70;;
74124;SDS011;62475;52.192;5.396;2023-05-16T15:06:53;1.98;;;0.50;;
74124;SDS011;62475;52.192;5.396;2023-05-16T15:10:17;3.72;;;0.60;;
74124;SDS011;62475;52.192;5.396;2023-05-16T15:13:41;3.88;;;0.55;;
74124;SDS011;62475;52.192;5.396;2023-05-16T15:17:05;1.25;;;0.45;;
74124;SDS011;62475;52.192;5.396;2023-05-16T15:20:29;3.20;;;0.73;;
74124;SDS011;62475;52.192;5.396;2023-05-16T15:23:53;4.13;;;0.50;;
74124;SDS011;62475;52.192;5.396;2023-05-16T15:27:16;2.25;;;0.35;;
74124;SDS011;62475;52.192;5.396;2023-05-16T15:30:40;4.07;;;0.57;;
74124;SDS011;62475;52.192;5.396;2023-05-16T15:34:04;1.73;;;0.68;;
74124;SDS011;62475;52.192;5.396;2023-05-16T15:40:52;5.93;;;0.98;;
74124;SDS011;62475;52.192;5.396;2023-05-16T15:44:20;4.85;;;1.33;;
74124;SDS011;62475;52.192;5.396;2023-05-16T15:47:43;1.45;;;0.70;;
74124;SDS011;62475;52.192;5.396;2023-05-16T15:51:12;1.48;;;0.82;;
74124;SDS011;62475;52.192;5.396;2023-05-16T15:54:35;2.42;;;1.02;;
74124;SDS011;62475;52.192;5.396;2023-05-16T15:57:59;6.75;;;0.98;;
74124;SDS011;62475;52.192;5.396;2023-05-16T16:01:23;4.88;;;1.00;;
74124;SDS011;62475;52.192;5.396;2023-05-16T16:04:47;2.67;;;1.08;;
74124;SDS011;62475;52.192;5.396;2023-05-16T16:08:12;3.55;;;1.17;;
74124;SDS011;62475;52.192;5.396;2023-05-16T16:11:36;3.45;;;1.00;;
74124;SDS011;62475;52.192;5.396;2023-05-16T16:15:01;4.80;;;1.20;;
74124;SDS011;62475;52.192;5.396;2023-05-16T16:18:25;4.78;;;1.42;;
74124;SDS011;62475;52.192;5.396;2023-05-16T16:21:50;3.10;;;1.45;;
74124;SDS011;62475;52.192;5.396;2023-05-16T16:25:14;8.27;;;2.03;;
74124;SDS011;62475;52.192;5.396;2023-05-16T16:28:37;3.92;;;1.27;;
74124;SDS011;62475;52.192;5.396;2023-05-16T16:32:01;4.32;;;1.33;;
74124;SDS011;62475;52.192;5.396;2023-05-16T16:35:25;4.03;;;2.25;;
74124;SDS011;62475;52.192;5.396;2023-05-16T16:38:49;3.25;;;1.52;;
74124;SDS011;62475;52.192;5.396;2023-05-16T16:42:13;6.97;;;2.08;;
74124;SDS011;62475;52.192;5.396;2023-05-16T16:45:39;3.95;;;1.90;;
74124;SDS011;62475;52.192;5.396;2023-05-16T16:49:03;3.85;;;1.45;;
74124;SDS011;62475;52.192;5.396;2023-05-16T16:52:27;5.20;;;1.60;;
74124;SDS011;62475;52.192;5.396;2023-05-16T16:55:51;4.03;;;1.73;;
74124;SDS011;62475;52.192;5.396;2023-05-16T16:59:16;6.70;;;1.73;;
74124;SDS011;62475;52.192;5.396;2023-05-16T17:02:40;2.63;;;1.42;;
74124;SDS011;62475;52.192;5.396;2023-05-16T17:06:04;4.35;;;1.85;;
74124;SDS011;62475;52.192;5.396;2023-05-16T17:09:28;8.93;;;2.33;;
74124;SDS011;62475;52.192;5.396;2023-05-16T17:12:52;4.68;;;1.83;;
74124;SDS011;62475;52.192;5.396;2023-05-16T17:16:18;5.32;;;2.42;;
74124;SDS011;62475;52.192;5.396;2023-05-16T17:19:43;5.22;;;2.40;;
74124;SDS011;62475;52.192;5.396;2023-05-16T17:23:07;5.95;;;1.50;;
74124;SDS011;62475;52.192;5.396;2023-05-16T17:26:31;2.88;;;1.60;;
74124;SDS011;62475;52.192;5.396;2023-05-16T17:29:56;4.05;;;1.48;;
74124;SDS011;62475;52.192;5.396;2023-05-16T17:33:20;4.43;;;1.13;;
74124;SDS011;62475;52.192;5.396;2023-05-16T17:36:44;2.92;;;1.17;;
74124;SDS011;62475;52.192;5.396;2023-05-16T17:40:09;3.53;;;1.42;;
74124;SDS011;62475;52.192;5.396;2023-05-16T17:43:36;5.57;;;1.25;;
74124;SDS011;62475;52.192;5.396;2023-05-16T17:50:27;4.07;;;1.23;;
74124;SDS011;62475;52.192;5.396;2023-05-16T17:53:53;3.90;;;1.00;;
74124;SDS011;62475;52.192;5.396;2023-05-16T17:57:16;8.38;;;1.27;;
74124;SDS011;62475;52.192;5.396;2023-05-16T18:00:41;5.00;;;1.30;;
74124;SDS011;62475;52.192;5.396;2023-05-16T18:04:07;4.97;;;1.35;;
74124;SDS011;62475;52.192;5.396;2023-05-16T18:07:31;4.55;;;1.05;;
74124;SDS011;62475;52.192;5.396;2023-05-16T18:10:55;6.20;;;1.20;;
74124;SDS011;62475;52.192;5.396;2023-05-16T18:14:20;3.38;;;1.30;;
74124;SDS011;62475;52.192;5.396;2023-05-16T18:17:44;6.22;;;1.02;;
74124;SDS011;62475;52.192;5.396;2023-05-16T18:21:08;6.80;;;1.38;;
74124;SDS011;62475;52.192;5.396;2023-05-16T18:24:35;7.55;;;1.67;;
74124;SDS011;62475;52.192;5.396;2023-05-16T18:27:59;7.63;;;1.67;;
74124;SDS011;62475;52.192;5.396;2023-05-16T18:31:23;7.63;;;1.50;;
74124;SDS011;62475;52.192;5.396;2023-05-16T18:34:47;7.60;;;1.20;;
74124;SDS011;62475;52.192;5.396;2023-05-16T18:38:11;4.88;;;1.35;;
74124;SDS011;62475;52.192;5.396;2023-05-16T18:41:36;6.55;;;1.23;;
74124;SDS011;62475;52.192;5.396;2023-05-16T18:45:00;3.05;;;1.40;;
74124;SDS011;62475;52.192;5.396;2023-05-16T18:48:24;5.05;;;1.35;;
74124;SDS011;62475;52.192;5.396;2023-05-16T18:51:48;6.50;;;1.13;;
74124;SDS011;62475;52.192;5.396;2023-05-16T18:55:12;5.53;;;1.30;;
74124;SDS011;62475;52.192;5.396;2023-05-16T18:58:36;5.30;;;1.73;;
74124;SDS011;62475;52.192;5.396;2023-05-16T19:01:59;4.47;;;1.73;;
74124;SDS011;62475;52.192;5.396;2023-05-16T19:05:23;9.25;;;1.58;;
74124;SDS011;62475;52.192;5.396;2023-05-16T19:08:48;6.97;;;1.63;;
74124;SDS011;62475;52.192;5.396;2023-05-16T19:12:11;8.00;;;1.48;;
74124;SDS011;62475;52.192;5.396;2023-05-16T19:15:38;6.05;;;1.90;;
74124;SDS011;62475;52.192;5.396;2023-05-16T19:19:02;7.35;;;1.63;;
74124;SDS011;62475;52.192;5.396;2023-05-16T19:22:27;8.48;;;2.30;;
74124;SDS011;62475;52.192;5.396;2023-05-16T19:25:54;4.82;;;1.95;;
74124;SDS011;62475;52.192;5.396;2023-05-16T19:29:18;3.25;;;1.38;;
74124;SDS011;62475;52.192;5.396;2023-05-16T19:32:42;6.97;;;1.40;;
74124;SDS011;62475;52.192;5.396;2023-05-16T19:36:05;5.28;;;1.52;;
74124;SDS011;62475;52.192;5.396;2023-05-16T19:39:30;9.52;;;1.95;;
74124;SDS011;62475;52.192;5.396;2023-05-16T19:46:17;7.53;;;1.48;;
74124;SDS011;62475;52.192;5.396;2023-05-16T19:49:41;4.43;;;1.95;;
74124;SDS011;62475;52.192;5.396;2023-05-16T19:53:06;6.38;;;1.88;;
74124;SDS011;62475;52.192;5.396;2023-05-16T19:56:30;6.22;;;1.50;;
74124;SDS011;62475;52.192;5.396;2023-05-16T19:59:54;6.22;;;1.50;;
74124;SDS011;62475;52.192;5.396;2023-05-16T20:03:18;5.07;;;1.95;;
74124;SDS011;62475;52.192;5.396;2023-05-16T20:06:41;7.05;;;1.90;;
74124;SDS011;62475;52.192;5.396;2023-05-16T20:10:08;8.88;;;1.73;;
74124;SDS011;62475;52.192;5.396;2023-05-16T20:13:32;6.85;;;1.90;;
74124;SDS011;62475;52.192;5.396;2023-05-16T20:16:56;10.98;;;1.92;;
74124;SDS011;62475;52.192;5.396;2023-05-16T20:20:20;8.20;;;1.90;;
74124;SDS011;62475;52.192;5.396;2023-05-16T20:23:44;7.70;;;1.35;;
74124;SDS011;62475;52.192;5.396;2023-05-16T20:27:08;8.90;;;1.98;;
74124;SDS011;62475;52.192;5.396;2023-05-16T20:30:32;4.38;;;1.90;;
74124;SDS011;62475;52.192;5.396;2023-05-16T20:33:56;11.85;;;2.65;;
74124;SDS011;62475;52.192;5.396;2023-05-16T20:37:20;8.90;;;2.50;;
74124;SDS011;62475;52.192;5.396;2023-05-16T20:40:44;8.90;;;1.98;;
74124;SDS011;62475;52.192;5.396;2023-05-16T20:44:08;8.10;;;1.92;;
74124;SDS011;62475;52.192;5.396;2023-05-16T20:47:32;11.77;;;2.40;;
74124;SDS011;62475;52.192;5.396;2023-05-16T20:50:55;12.82;;;3.05;;
74124;SDS011;62475;52.192;5.396;2023-05-16T20:54:19;8.77;;;1.90;;
74124;SDS011;62475;52.192;5.396;2023-05-16T20:57:43;8.65;;;2.00;;
74124;SDS011;62475;52.192;5.396;2023-05-16T21:01:07;9.57;;;2.00;;
74124;SDS011;62475;52.192;5.396;2023-05-16T21:04:34;6.95;;;1.98;;
74124;SDS011;62475;52.192;5.396;2023-05-16T21:07:59;6.38;;;2.10;;
74124;SDS011;62475;52.192;5.396;2023-05-16T21:11:23;11.50;;;2.42;;
74124;SDS011;62475;52.192;5.396;2023-05-16T21:14:47;7.45;;;2.70;;
74124;SDS011;62475;52.192;5.396;2023-05-16T21:18:11;10.68;;;2.70;;
74124;SDS011;62475;52.192;5.396;2023-05-16T21:21:34;6.68;;;2.03;;
74124;SDS011;62475;52.192;5.396;2023-05-16T21:25:02;10.18;;;2.70;;
74124;SDS011;62475;52.192;5.396;2023-05-16T21:28:26;8.00;;;2.67;;
74124;SDS011;62475;52.192;5.396;2023-05-16T21:31:50;8.18;;;2.63;;